Città:
 IT 
 EN 
 FR 
 DE 
 ES 

Dati meteo attuali Milano

Datameteo.com - Informazione e servizi avanzati per la meteorologia,la nautica e la protezione civile
Milano / Linate, Italy
Alba: 6:48 AM UTC1
Tramonto: 5:24 PM UTC1
 Lat: 45.42N, Lon: 9.27E
ICAO Used: LIML
Condizioni Meteo Attuali Aggiornate: 23.10.2020 alle 01:50 UTC
Foschia
Foschia
Molto Nuvoloso
Foschia
Temp: 13°C
Umidita': 100%
Direz/Vel. Vento: variabile 1 / KT raffiche
Pressione: 1022 hPa
Punto di rugiada: 13°C
Temperatura percepita: 13°C
Visibilitą: 3000 m. (discreta)
Temperatura percepita in
presenza di vento (Wind Chill)
:
N/D
T. max (ultime 24 ore): 13°C
T. min (ultime 24 ore): 13°C


METAR ORIGINALE
LIML 230150Z VRB01KT 3000 BR BKN004 13/13 Q1022 NOSIG



[ Indietro ]


Elaborazione dati by Datameteo.com - Lrc srl Copyright ©, All rights reserved.
Visualizza la versione web
©2010 Datameteo.com
weather mobile,mobile weather,meteo mobile,mobile meteo,meteo sul telefonino datameteo.com